createdAt,value
2022-08-26T00:02:20.557Z,100919.41
2022-08-26T00:04:50.493Z,100922.38
2022-08-26T00:07:19.304Z,100915.03
2022-08-26T00:09:47.644Z,100921.38
2022-08-26T00:12:16.641Z,100925.53
2022-08-26T00:14:44.977Z,100922.72
2022-08-26T00:17:13.591Z,100917.56
2022-08-26T00:19:41.949Z,100928.78
2022-08-26T00:22:13.998Z,100928.72
2022-08-26T00:24:49.863Z,100924.75
2022-08-26T00:27:18.238Z,100931.34
2022-08-26T00:29:46.628Z,100941.50
2022-08-26T00:32:14.952Z,100938.06
2022-08-26T00:34:43.361Z,100928.38
2022-08-26T00:37:16.141Z,100930.44
2022-08-26T00:39:44.663Z,100930.97
2022-08-26T00:42:14.165Z,100932.22
2022-08-26T00:44:42.586Z,100934.03
2022-08-26T00:47:22.597Z,100941.41
2022-08-26T00:49:52.703Z,100938.69
2022-08-26T00:52:24.229Z,100941.50
2022-08-26T00:55:01.377Z,100938.75
2022-08-26T00:57:32.087Z,100948.72
2022-08-26T01:00:05.232Z,100948.28
2022-08-26T01:02:33.668Z,100958.09
2022-08-26T01:05:05.166Z,100963.88
2022-08-26T01:07:36.327Z,100945.91
2022-08-26T01:10:10.611Z,100963.28
2022-08-26T01:12:43.853Z,100957.66
2022-08-26T01:15:18.200Z,100964.78
2022-08-26T01:17:46.591Z,100971.06
2022-08-26T01:20:35.191Z,100970.13
2022-08-26T01:23:08.954Z,100972.78
2022-08-26T01:25:43.038Z,100965.69
2022-08-26T01:28:17.347Z,100952.34
2022-08-26T01:30:50.983Z,100962.63
2022-08-26T01:33:24.582Z,100956.72
2022-08-26T01:35:53.417Z,100961.66
2022-08-26T01:38:23.723Z,100969.13
2022-08-26T01:40:52.557Z,100975.06
2022-08-26T01:43:28.347Z,100984.19
2022-08-26T01:45:57.094Z,100984.66
2022-08-26T01:48:31.840Z,100978.25
2022-08-26T01:51:02.276Z,100981.31
2022-08-26T01:53:32.406Z,100995.16
2022-08-26T01:56:03.379Z,100991.09
2022-08-26T01:58:37.590Z,100990.38
2022-08-26T02:01:07.263Z,100996.22
2022-08-26T02:03:59.836Z,100991.63
2022-08-26T02:06:28.356Z,101002.91
2022-08-26T02:09:02.008Z,100993.84
2022-08-26T02:11:30.364Z,100994.94
2022-08-26T02:14:04.426Z,100999.47
2022-08-26T02:16:42.445Z,101001.91
2022-08-26T02:19:17.217Z,100999.91
2022-08-26T02:21:50.990Z,101012.25
2022-08-26T02:24:27.498Z,101017.56
2022-08-26T02:26:57.660Z,101020.31
2022-08-26T02:29:33.596Z,101029.03
2022-08-26T02:32:02.216Z,101017.59
2022-08-26T02:34:33.030Z,101024.91
2022-08-26T02:37:05.382Z,101026.88
2022-08-26T02:39:37.747Z,101027.09
2022-08-26T02:42:06.626Z,101021.38
2022-08-26T02:44:35.255Z,101025.94
2022-08-26T02:47:03.801Z,101027.13
2022-08-26T02:49:33.653Z,101020.03
2022-08-26T02:52:02.127Z,101025.88
2022-08-26T02:54:30.546Z,101030.06
2022-08-26T02:57:00.463Z,101023.72
2022-08-26T02:59:29.291Z,101028.59
2022-08-26T03:01:58.628Z,101022.53
2022-08-26T03:04:27.027Z,101016.69
2022-08-26T03:06:56.247Z,101019.09
2022-08-26T03:09:24.918Z,101019.50
2022-08-26T03:11:55.527Z,101018.78
2022-08-26T03:14:26.185Z,101025.84
2022-08-26T03:16:55.655Z,101017.34
2022-08-26T03:19:25.714Z,101010.94
2022-08-26T03:21:57.809Z,101019.94
2022-08-26T03:24:27.568Z,101017.88
2022-08-26T03:26:56.009Z,101027.38
2022-08-26T03:29:43.542Z,101026.78
2022-08-26T03:32:12.053Z,101024.63
2022-08-26T03:34:40.612Z,101029.28
2022-08-26T03:37:08.999Z,101024.34
2022-08-26T03:39:38.062Z,101026.34
2022-08-26T03:42:06.993Z,101028.75
2022-08-26T03:44:41.986Z,101032.41
2022-08-26T03:47:10.755Z,101030.19
2022-08-26T03:49:39.475Z,101029.91
2022-08-26T03:52:08.161Z,101025.06
2022-08-26T03:54:36.470Z,101028.00
2022-08-26T03:57:05.165Z,101025.34
2022-08-26T03:59:34.229Z,101034.41
2022-08-26T04:02:04.067Z,101033.13
2022-08-26T04:04:39.820Z,101038.66
2022-08-26T04:07:08.658Z,101032.97
2022-08-26T04:09:37.192Z,101044.75
2022-08-26T04:12:06.499Z,101042.78
2022-08-26T04:14:37.762Z,101043.38
2022-08-26T04:17:08.805Z,101050.19
2022-08-26T04:19:37.167Z,101047.00
2022-08-26T04:22:05.843Z,101049.94
2022-08-26T04:24:34.726Z,101042.69
2022-08-26T04:27:03.717Z,101041.03
2022-08-26T04:29:33.146Z,101043.28
2022-08-26T04:32:03.713Z,101040.66
2022-08-26T04:34:33.501Z,101044.72
2022-08-26T04:37:02.602Z,101044.19
2022-08-26T04:39:30.923Z,101045.38
2022-08-26T04:42:01.698Z,101047.78
2022-08-26T04:44:31.730Z,101049.13
2022-08-26T04:47:00.307Z,101051.47
2022-08-26T04:49:28.890Z,101046.00
2022-08-26T04:52:06.127Z,101045.78
2022-08-26T04:54:36.128Z,101055.91
2022-08-26T04:57:04.712Z,101050.28
2022-08-26T04:59:38.491Z,101052.47
2022-08-26T05:02:07.920Z,101059.16
2022-08-26T05:04:37.502Z,101068.00
2022-08-26T05:07:08.133Z,101063.72
2022-08-26T05:09:38.124Z,101064.78
2022-08-26T05:12:07.074Z,101058.72
2022-08-26T05:14:35.443Z,101065.44
2022-08-26T05:17:03.962Z,101056.63
2022-08-26T05:19:33.111Z,101058.66
2022-08-26T05:22:01.476Z,101061.41
2022-08-26T05:24:31.202Z,101060.56
2022-08-26T05:26:59.544Z,101063.00
2022-08-26T05:29:28.265Z,101063.22
2022-08-26T05:31:56.586Z,101061.84
2022-08-26T05:34:25.774Z,101061.09
2022-08-26T05:36:58.559Z,101060.63
2022-08-26T05:39:26.920Z,101068.81
2022-08-26T05:41:56.664Z,101072.38
2022-08-26T05:44:24.969Z,101067.72
2022-08-26T05:46:53.418Z,101069.91
2022-08-26T05:49:26.225Z,101078.06
2022-08-26T05:51:54.782Z,101075.47
2022-08-26T05:54:23.077Z,101078.25
2022-08-26T05:56:52.485Z,101073.44
2022-08-26T05:59:24.641Z,101075.44
2022-08-26T06:01:53.464Z,101083.66
2022-08-26T06:04:23.107Z,101074.97
2022-08-26T06:06:55.074Z,101075.78
2022-08-26T06:09:23.464Z,101076.88
2022-08-26T06:11:52.127Z,101078.25
2022-08-26T06:14:23.865Z,101083.25
2022-08-26T06:16:52.272Z,101085.13
2022-08-26T06:19:22.118Z,101089.81
2022-08-26T06:21:54.063Z,101090.41
2022-08-26T06:24:40.828Z,101101.38
2022-08-26T06:27:13.894Z,101093.50
2022-08-26T06:29:45.033Z,101101.06
2022-08-26T06:32:13.389Z,101095.84
2022-08-26T06:34:41.732Z,101099.94
2022-08-26T06:37:10.066Z,101097.09
2022-08-26T06:39:41.049Z,101096.38
2022-08-26T06:42:11.079Z,101101.94
2022-08-26T06:44:41.674Z,101101.50
2022-08-26T06:47:14.520Z,101105.75
2022-08-26T06:49:44.214Z,101106.00
2022-08-26T06:52:12.770Z,101103.28
2022-08-26T06:54:43.304Z,101102.94
2022-08-26T06:57:13.015Z,101109.81
2022-08-26T06:59:45.022Z,101106.09
2022-08-26T07:02:15.235Z,101110.84
2022-08-26T07:04:47.827Z,101108.34
2022-08-26T07:07:16.913Z,101108.59
2022-08-26T07:09:45.929Z,101105.00
2022-08-26T07:12:14.323Z,101112.47
2022-08-26T07:14:47.282Z,101115.16
2022-08-26T07:17:17.846Z,101112.16
2022-08-26T07:19:49.699Z,101122.16
2022-08-26T07:22:18.830Z,101123.75
2022-08-26T07:24:47.399Z,101127.03
2022-08-26T07:27:18.025Z,101123.63
2022-08-26T07:29:46.764Z,101127.69
2022-08-26T07:32:20.243Z,101122.91
2022-08-26T07:34:51.582Z,101129.28
2022-08-26T07:37:20.675Z,101131.25
2022-08-26T07:39:49.083Z,101126.28
2022-08-26T07:42:20.507Z,101125.09
2022-08-26T07:44:49.261Z,101134.38
2022-08-26T07:47:25.086Z,101135.72
2022-08-26T07:49:56.161Z,101139.06
2022-08-26T07:52:26.984Z,101144.59
2022-08-26T07:54:58.166Z,101137.09
2022-08-26T07:57:27.040Z,101143.56
2022-08-26T07:59:56.142Z,101150.44
2022-08-26T08:02:28.188Z,101143.97
2022-08-26T08:04:58.389Z,101141.38
2022-08-26T08:07:38.368Z,101152.34
2022-08-26T08:10:16.204Z,101152.13
2022-08-26T08:12:44.968Z,101152.63
2022-08-26T08:15:14.454Z,101155.56
2022-08-26T08:17:45.109Z,101160.16
2022-08-26T08:20:15.946Z,101153.28
2022-08-26T08:22:44.827Z,101151.28
2022-08-26T08:25:14.752Z,101149.97
2022-08-26T08:27:46.429Z,101154.88
2022-08-26T08:30:20.794Z,101154.94
2022-08-26T08:32:53.149Z,101149.59
2022-08-26T08:35:23.561Z,101160.19
2022-08-26T08:37:54.791Z,101157.41
2022-08-26T08:40:26.534Z,101160.81
2022-08-26T08:43:02.442Z,101161.03
2022-08-26T08:45:37.630Z,101162.91
2022-08-26T08:48:14.810Z,101159.16
2022-08-26T08:50:46.967Z,101167.56
2022-08-26T08:53:22.682Z,101166.13
2022-08-26T08:56:05.139Z,101166.41
2022-08-26T08:58:51.526Z,101166.09
2022-08-26T09:01:31.126Z,101161.34
2022-08-26T09:04:26.036Z,101171.19
2022-08-26T09:06:58.991Z,101162.22
2022-08-26T09:09:36.988Z,101164.25
2022-08-26T09:12:08.997Z,101170.97
2022-08-26T09:14:37.728Z,101174.31
2022-08-26T09:17:17.783Z,101167.47
2022-08-26T09:19:53.467Z,101171.13
2022-08-26T09:22:32.319Z,101171.72
2022-08-26T09:25:01.517Z,101173.41
2022-08-26T09:27:50.496Z,101172.41
2022-08-26T09:30:27.327Z,101173.03
2022-08-26T09:33:03.023Z,101177.38
2022-08-26T09:35:43.512Z,101181.19
2022-08-26T09:38:26.733Z,101187.16
2022-08-26T09:40:59.696Z,101179.53
2022-08-26T09:43:29.187Z,101178.31
2022-08-26T09:46:15.093Z,101176.31
2022-08-26T09:48:43.745Z,101177.56
2022-08-26T09:51:33.873Z,101176.91
2022-08-26T09:54:05.724Z,101178.28
2022-08-26T09:56:39.524Z,101183.78
2022-08-26T09:59:12.091Z,101182.88
2022-08-26T10:01:43.273Z,101180.13
2022-08-26T10:04:21.260Z,101183.56
2022-08-26T10:07:00.186Z,101175.13
2022-08-26T10:09:30.071Z,101182.81
2022-08-26T10:12:05.405Z,101175.19
2022-08-26T10:14:39.865Z,101177.09
2022-08-26T10:17:15.812Z,101168.91
2022-08-26T10:19:57.046Z,101166.28
2022-08-26T10:22:35.732Z,101164.16
2022-08-26T10:25:12.390Z,101167.34
2022-08-26T10:27:53.779Z,101170.09
2022-08-26T10:30:25.605Z,101166.88
2022-08-26T10:32:58.915Z,101164.34
2022-08-26T10:35:28.128Z,101170.72
2022-08-26T10:38:03.976Z,101169.75
2022-08-26T10:40:52.917Z,101169.41
2022-08-26T10:43:26.507Z,101171.59
2022-08-26T10:46:00.414Z,101166.88
2022-08-26T10:48:38.591Z,101168.72
2022-08-26T10:51:08.600Z,101162.59
2022-08-26T10:53:51.416Z,101160.72
2022-08-26T10:56:35.543Z,101166.03
2022-08-26T10:59:12.476Z,101155.06
2022-08-26T11:01:51.060Z,101159.25
2022-08-26T11:04:48.342Z,101156.53
2022-08-26T11:07:41.171Z,101159.25
2022-08-26T11:11:04.616Z,101162.03
2022-08-26T11:14:03.075Z,101170.91
2022-08-26T11:16:42.793Z,101163.28
2022-08-26T11:19:58.976Z,101161.50
2022-08-26T11:22:31.112Z,101164.53
2022-08-26T11:25:11.595Z,101164.75
2022-08-26T11:27:59.691Z,101164.00
2022-08-26T11:30:56.906Z,101162.38
2022-08-26T11:33:58.142Z,101159.69
2022-08-26T11:36:58.242Z,101160.88
2022-08-26T11:39:36.747Z,101153.91
2022-08-26T11:42:28.461Z,101150.66
2022-08-26T11:44:58.390Z,101151.69
2022-08-26T11:47:31.522Z,101150.31
2022-08-26T11:50:13.755Z,101146.06
2022-08-26T11:52:42.256Z,101149.09
2022-08-26T11:55:16.282Z,101154.53
2022-08-26T11:57:51.886Z,101153.47
2022-08-26T12:00:24.437Z,101145.38
2022-08-26T12:02:54.716Z,101144.53
2022-08-26T12:05:30.845Z,101150.44
2022-08-26T12:08:05.035Z,101149.94
2022-08-26T12:10:37.116Z,101150.13
2022-08-26T12:13:08.045Z,101149.63
2022-08-26T12:15:36.915Z,101146.19
2022-08-26T12:18:30.756Z,101149.84
2022-08-26T12:21:12.321Z,101155.75
2022-08-26T12:23:47.559Z,101152.13
2022-08-26T12:26:28.811Z,101154.00
2022-08-26T12:29:02.339Z,101150.78
2022-08-26T12:31:49.750Z,101157.03
2022-08-26T12:34:18.767Z,101150.75
2022-08-26T12:36:50.909Z,101154.09
2022-08-26T12:39:29.321Z,101157.31
2022-08-26T12:42:01.376Z,101155.34
2022-08-26T12:44:36.596Z,101160.31
2022-08-26T12:47:10.443Z,101159.09
2022-08-26T12:49:40.545Z,101163.38
2022-08-26T12:52:30.932Z,101162.56
2022-08-26T12:55:02.743Z,101162.97
2022-08-26T12:57:36.221Z,101162.03
2022-08-26T13:00:31.991Z,101153.91
2022-08-26T13:03:01.997Z,101151.41
2022-08-26T13:05:35.156Z,101157.97
2022-08-26T13:08:16.623Z,101152.53
2022-08-26T13:10:48.730Z,101152.34
2022-08-26T13:13:18.390Z,101145.44
2022-08-26T13:15:46.749Z,101147.72
2022-08-26T13:18:15.089Z,101143.44
2022-08-26T13:20:45.122Z,101143.25
2022-08-26T13:23:14.138Z,101144.19
2022-08-26T13:25:42.705Z,101134.59
2022-08-26T13:28:11.028Z,101134.38
2022-08-26T13:30:41.906Z,101138.66
2022-08-26T13:33:12.252Z,101138.34
2022-08-26T13:35:43.526Z,101143.94
2022-08-26T13:38:22.309Z,101141.25
2022-08-26T13:41:02.710Z,101132.81
2022-08-26T13:43:31.912Z,101136.78
2022-08-26T13:46:02.629Z,101128.94
2022-08-26T13:48:31.548Z,101128.38
2022-08-26T13:51:00.180Z,101136.97
2022-08-26T13:53:29.507Z,101140.75
2022-08-26T13:55:58.783Z,101133.63
2022-08-26T13:58:27.903Z,101138.75
2022-08-26T14:00:58.131Z,101132.97
2022-08-26T14:03:28.152Z,101135.16
2022-08-26T14:05:56.644Z,101125.03
2022-08-26T14:08:25.333Z,101138.34
2022-08-26T14:10:53.810Z,101127.75
2022-08-26T14:13:22.618Z,101132.34
2022-08-26T14:15:51.169Z,101133.13
2022-08-26T14:18:24.188Z,101143.19
2022-08-26T14:20:56.142Z,101141.72
2022-08-26T14:23:24.851Z,101143.13
2022-08-26T14:25:53.541Z,101134.91
2022-08-26T14:28:21.939Z,101134.69
2022-08-26T14:30:56.445Z,101135.75
2022-08-26T14:33:29.109Z,101129.16
2022-08-26T14:36:18.811Z,101138.38
2022-08-26T14:38:47.584Z,101128.13
2022-08-26T14:41:18.251Z,101137.47
2022-08-26T14:43:54.528Z,101135.03
2022-08-26T14:46:22.949Z,101143.53
2022-08-26T14:48:51.275Z,101144.31
2022-08-26T14:51:24.040Z,101142.09
2022-08-26T14:54:10.896Z,101128.13
2022-08-26T14:56:42.262Z,101132.59
2022-08-26T14:59:10.755Z,101137.59
2022-08-26T15:01:39.256Z,101133.53
2022-08-26T15:04:07.816Z,101130.38
2022-08-26T15:06:38.215Z,101131.97
2022-08-26T15:09:07.361Z,101129.78
2022-08-26T15:11:36.165Z,101134.13
2022-08-26T15:14:04.651Z,101131.69
2022-08-26T15:16:33.750Z,101135.13
2022-08-26T15:19:04.513Z,101129.50
2022-08-26T15:21:34.040Z,101132.25
2022-08-26T15:24:05.056Z,101128.13
2022-08-26T15:26:35.755Z,101131.41
2022-08-26T15:29:05.317Z,101131.59
2022-08-26T15:31:34.969Z,101128.03
2022-08-26T15:34:07.598Z,101124.47
2022-08-26T15:36:38.224Z,101131.78
2022-08-26T15:39:09.456Z,101121.84
2022-08-26T15:41:38.239Z,101118.41
2022-08-26T15:44:09.177Z,101117.50
2022-08-26T15:46:38.671Z,101114.81
2022-08-26T15:49:07.681Z,101116.63
2022-08-26T15:51:45.333Z,101118.91
2022-08-26T15:54:18.134Z,101124.47
2022-08-26T15:56:48.546Z,101120.84
2022-08-26T15:59:17.788Z,101110.38
2022-08-26T16:01:46.709Z,101118.00
2022-08-26T16:04:15.487Z,101104.81
2022-08-26T16:06:44.005Z,101112.88
2022-08-26T16:09:12.986Z,101113.84
2022-08-26T16:11:43.027Z,101120.66
2022-08-26T16:14:11.408Z,101118.38
2022-08-26T16:16:41.351Z,101113.63
2022-08-26T16:19:11.589Z,101111.09
2022-08-26T16:21:40.863Z,101118.72
2022-08-26T16:24:09.347Z,101115.84
2022-08-26T16:26:39.923Z,101116.59
2022-08-26T16:29:12.688Z,101121.91
2022-08-26T16:31:41.656Z,101123.75
2022-08-26T16:34:10.932Z,101119.31
2022-08-26T16:36:40.552Z,101128.31
2022-08-26T16:39:10.072Z,101123.34
2022-08-26T16:41:38.579Z,101117.19
2022-08-26T16:44:11.453Z,101113.69
2022-08-26T16:46:41.230Z,101112.72
2022-08-26T16:49:09.677Z,101121.28
2022-08-26T16:51:38.602Z,101122.59
2022-08-26T16:54:08.983Z,101134.22
2022-08-26T16:56:38.807Z,101140.50
2022-08-26T16:59:11.515Z,101133.53
2022-08-26T17:01:40.048Z,101134.91
2022-08-26T17:04:08.591Z,101141.22
2022-08-26T17:06:38.277Z,101149.03
2022-08-26T17:09:06.974Z,101152.03
2022-08-26T17:11:36.039Z,101153.56
2022-08-26T17:14:05.390Z,101152.69
2022-08-26T17:16:35.516Z,101157.47
2022-08-26T17:19:05.589Z,101152.69
2022-08-26T17:21:35.491Z,101160.53
2022-08-26T17:24:05.024Z,101161.22
2022-08-26T17:26:34.015Z,101165.91
2022-08-26T17:29:02.376Z,101171.31
2022-08-26T17:31:32.551Z,101180.00
2022-08-26T17:34:02.292Z,101178.84
2022-08-26T17:36:31.504Z,101175.22
2022-08-26T17:39:00.419Z,101177.09
2022-08-26T17:41:30.120Z,101177.69
2022-08-26T17:43:58.831Z,101181.44
2022-08-26T17:46:27.534Z,101175.59
2022-08-26T17:48:56.406Z,101177.28
2022-08-26T17:51:27.038Z,101179.31
2022-08-26T17:53:55.752Z,101175.81
2022-08-26T17:56:28.078Z,101175.47
2022-08-26T17:59:02.267Z,101186.00
2022-08-26T18:01:31.329Z,101177.69
2022-08-26T18:04:00.974Z,101180.34
2022-08-26T18:06:31.619Z,101179.69
2022-08-26T18:09:00.646Z,101171.84
2022-08-26T18:11:31.247Z,101170.19
2022-08-26T18:14:00.406Z,101180.41
2022-08-26T18:16:34.134Z,101169.97
2022-08-26T18:19:02.572Z,101165.91
2022-08-26T18:21:32.350Z,101172.63
2022-08-26T18:24:00.715Z,101171.13
2022-08-26T18:26:32.222Z,101175.09
2022-08-26T18:29:01.884Z,101175.00
2022-08-26T18:31:31.117Z,101175.63
2022-08-26T18:34:01.562Z,101176.13
2022-08-26T18:36:34.579Z,101179.19
2022-08-26T18:39:04.793Z,101184.22
2022-08-26T18:41:39.777Z,101191.81
2022-08-26T18:44:12.942Z,101187.13
2022-08-26T18:46:43.198Z,101188.66
2022-08-26T18:49:13.461Z,101185.13
2022-08-26T18:51:44.375Z,101185.97
2022-08-26T18:54:13.564Z,101186.97
2022-08-26T18:56:43.807Z,101193.22
2022-08-26T18:59:13.619Z,101189.81
2022-08-26T19:01:43.386Z,101183.19
2022-08-26T19:04:15.387Z,101192.78
2022-08-26T19:06:48.357Z,101195.50
2022-08-26T19:09:17.882Z,101200.66
2022-08-26T19:11:47.055Z,101203.47
2022-08-26T19:14:19.308Z,101203.31
2022-08-26T19:16:52.527Z,101200.91
2022-08-26T19:19:23.884Z,101192.78
2022-08-26T19:21:54.287Z,101202.94
2022-08-26T19:24:27.433Z,101199.81
2022-08-26T19:27:00.826Z,101207.97
2022-08-26T19:29:32.155Z,101214.06
2022-08-26T19:32:00.948Z,101211.75
2022-08-26T19:34:29.550Z,101206.00
2022-08-26T19:36:59.336Z,101213.25
2022-08-26T19:39:28.596Z,101210.94
2022-08-26T19:41:56.988Z,101216.59
2022-08-26T19:44:42.707Z,101215.66
2022-08-26T19:47:13.411Z,101218.88
2022-08-26T19:49:41.779Z,101217.16
2022-08-26T19:52:12.261Z,101217.69
2022-08-26T19:54:41.506Z,101221.09
2022-08-26T19:57:11.137Z,101214.59
2022-08-26T19:59:40.250Z,101210.44
2022-08-26T20:02:11.044Z,101208.91
2022-08-26T20:04:41.614Z,101216.41
2022-08-26T20:07:14.225Z,101215.00
2022-08-26T20:09:45.045Z,101212.41
2022-08-26T20:12:13.693Z,101222.56
2022-08-26T20:14:43.003Z,101217.50
2022-08-26T20:17:12.117Z,101220.56
2022-08-26T20:19:57.818Z,101218.78
2022-08-26T20:22:28.217Z,101210.88
2022-08-26T20:24:56.639Z,101225.63
2022-08-26T20:27:34.337Z,101227.19
2022-08-26T20:30:09.397Z,101231.03
2022-08-26T20:32:38.552Z,101228.47
2022-08-26T20:35:10.653Z,101227.25
2022-08-26T20:37:40.821Z,101227.09
2022-08-26T20:40:13.189Z,101232.50
2022-08-26T20:42:41.713Z,101230.03
2022-08-26T20:45:11.528Z,101226.47
2022-08-26T20:47:39.937Z,101232.03
2022-08-26T20:50:09.337Z,101234.09
2022-08-26T20:52:39.079Z,101233.81
2022-08-26T20:55:08.672Z,101236.09
2022-08-26T20:57:37.364Z,101245.31
2022-08-26T21:00:07.710Z,101247.81
2022-08-26T21:02:37.063Z,101247.59
2022-08-26T21:05:06.592Z,101240.66
2022-08-26T21:07:36.958Z,101241.91
2022-08-26T21:10:07.607Z,101240.75
2022-08-26T21:12:36.841Z,101245.38
2022-08-26T21:15:07.462Z,101241.47
2022-08-26T21:17:36.613Z,101243.09
2022-08-26T21:20:06.041Z,101246.19
2022-08-26T21:22:34.469Z,101249.69
2022-08-26T21:25:03.025Z,101241.00
2022-08-26T21:27:33.156Z,101249.56
2022-08-26T21:30:01.508Z,101249.75
2022-08-26T21:32:29.890Z,101249.00
2022-08-26T21:34:59.719Z,101246.31
2022-08-26T21:37:29.437Z,101245.22
2022-08-26T21:40:01.938Z,101257.03
2022-08-26T21:42:35.796Z,101256.13
2022-08-26T21:45:05.602Z,101256.97
2022-08-26T21:47:34.006Z,101261.88
2022-08-26T21:50:02.460Z,101254.59
2022-08-26T21:52:30.831Z,101259.06
2022-08-26T21:55:00.302Z,101259.03
2022-08-26T21:57:30.264Z,101261.03
2022-08-26T22:00:00.490Z,101256.50
2022-08-26T22:02:33.173Z,101256.75
2022-08-26T22:05:01.560Z,101275.09
2022-08-26T22:07:29.939Z,101268.47
2022-08-26T22:09:58.279Z,101269.00
2022-08-26T22:12:26.616Z,101265.84
2022-08-26T22:14:55.691Z,101264.22
2022-08-26T22:17:26.509Z,101266.91
2022-08-26T22:19:55.169Z,101258.13
2022-08-26T22:22:26.298Z,101265.16
2022-08-26T22:24:54.703Z,101265.94
2022-08-26T22:27:23.125Z,101262.19
2022-08-26T22:29:51.551Z,101263.94
2022-08-26T22:32:20.016Z,101271.13
2022-08-26T22:34:49.739Z,101272.53
2022-08-26T22:37:18.119Z,101269.50
2022-08-26T22:39:46.439Z,101276.09
2022-08-26T22:42:15.467Z,101275.69
2022-08-26T22:44:44.128Z,101279.28
2022-08-26T22:47:12.562Z,101275.94
2022-08-26T22:49:40.881Z,101272.31
2022-08-26T22:52:10.598Z,101263.03
2022-08-26T22:54:40.174Z,101272.88
2022-08-26T22:57:09.842Z,101268.38
2022-08-26T22:59:39.451Z,101271.50
2022-08-26T23:02:12.128Z,101272.63
2022-08-26T23:04:42.787Z,101275.41
2022-08-26T23:07:13.882Z,101267.03
2022-08-26T23:09:43.633Z,101279.31
2022-08-26T23:12:13.757Z,101275.69
2022-08-26T23:14:43.976Z,101277.59
2022-08-26T23:17:14.391Z,101278.94
2022-08-26T23:19:44.191Z,101275.84
2022-08-26T23:22:16.926Z,101279.78
2022-08-26T23:24:46.711Z,101278.63
2022-08-26T23:27:16.738Z,101277.63
2022-08-26T23:29:46.535Z,101271.19
2022-08-26T23:32:15.196Z,101278.06
2022-08-26T23:34:59.622Z,101282.56
2022-08-26T23:37:33.572Z,101278.69
2022-08-26T23:40:06.911Z,101271.47
2022-08-26T23:42:36.219Z,101268.03
2022-08-26T23:45:05.748Z,101265.63
2022-08-26T23:47:34.627Z,101273.94
2022-08-26T23:50:03.268Z,101266.75
2022-08-26T23:52:50.622Z,101267.25
2022-08-26T23:55:19.297Z,101268.59
2022-08-26T23:57:47.981Z,101261.91
